createdAt,value
2018-06-13T00:01:03.460Z,0
2018-06-13T00:02:04.022Z,0
2018-06-13T00:03:04.612Z,0
2018-06-13T00:04:05.157Z,0
2018-06-13T00:05:05.701Z,0
2018-06-13T00:06:06.245Z,0
2018-06-13T00:07:06.798Z,0
2018-06-13T00:08:07.344Z,0
2018-06-13T00:09:07.894Z,0
2018-06-13T00:10:08.447Z,0
2018-06-13T00:11:08.998Z,0
2018-06-13T00:12:09.545Z,0
2018-06-13T00:13:10.093Z,0
2018-06-13T00:14:10.638Z,0
2018-06-13T00:15:11.190Z,0
2018-06-13T00:16:11.736Z,0
2018-06-13T00:17:12.287Z,0
2018-06-13T00:18:12.837Z,0
2018-06-13T00:19:13.390Z,0
2018-06-13T00:20:13.934Z,0
2018-06-13T00:21:14.486Z,0
2018-06-13T00:22:15.035Z,0
2018-06-13T00:23:15.586Z,0
2018-06-13T00:24:16.135Z,0
2018-06-13T00:25:16.685Z,0
2018-06-13T00:26:17.232Z,0
2018-06-13T00:27:17.781Z,0
2018-06-13T00:28:18.333Z,0
2018-06-13T00:29:18.878Z,0
2018-06-13T00:30:19.427Z,0
2018-06-13T00:31:19.978Z,0
2018-06-13T00:32:20.521Z,0
2018-06-13T00:33:21.077Z,0
2018-06-13T00:34:21.623Z,0
2018-06-13T00:35:22.172Z,0
2018-06-13T00:36:22.718Z,0
2018-06-13T00:37:23.265Z,0
2018-06-13T00:38:23.809Z,0
2018-06-13T00:39:24.359Z,0
2018-06-13T00:40:24.904Z,0
2018-06-13T00:41:25.447Z,0
2018-06-13T00:42:25.996Z,0
2018-06-13T00:43:26.543Z,0
2018-06-13T00:44:27.092Z,0
2018-06-13T00:45:27.638Z,0
2018-06-13T00:46:28.226Z,0
2018-06-13T00:47:28.735Z,0
2018-06-13T00:48:29.280Z,0
2018-06-13T00:49:29.827Z,0
2018-06-13T00:50:30.379Z,0
2018-06-13T00:51:30.931Z,0
2018-06-13T00:52:31.474Z,0
2018-06-13T00:53:32.026Z,0
2018-06-13T00:54:32.577Z,0
2018-06-13T00:55:33.123Z,0
2018-06-13T00:56:33.668Z,0
2018-06-13T00:57:34.215Z,0
2018-06-13T00:58:34.762Z,0
2018-06-13T00:59:35.306Z,0
2018-06-13T01:00:35.852Z,0
2018-06-13T01:01:36.404Z,0
2018-06-13T01:02:36.944Z,0
2018-06-13T01:03:37.493Z,0
2018-06-13T01:04:38.042Z,0
2018-06-13T01:05:38.583Z,0
2018-06-13T01:06:39.131Z,0
2018-06-13T01:07:39.681Z,0
2018-06-13T01:08:40.229Z,0
2018-06-13T01:09:40.780Z,0
2018-06-13T01:10:41.321Z,0
2018-06-13T01:11:41.872Z,0
2018-06-13T01:12:42.419Z,0
2018-06-13T01:13:42.973Z,0
2018-06-13T01:14:43.526Z,0
2018-06-13T01:15:44.071Z,0
2018-06-13T01:16:44.615Z,0
2018-06-13T01:17:45.162Z,0
2018-06-13T01:18:45.710Z,0
2018-06-13T01:19:46.260Z,0
2018-06-13T01:20:46.807Z,0
2018-06-13T01:21:47.355Z,0
2018-06-13T01:22:47.911Z,0
2018-06-13T01:23:48.454Z,0
2018-06-13T01:24:49.001Z,0
2018-06-13T01:25:49.551Z,0
2018-06-13T01:26:50.097Z,0
2018-06-13T01:27:50.644Z,0
2018-06-13T01:28:51.198Z,0
2018-06-13T01:29:51.743Z,0
2018-06-13T01:30:52.291Z,0
2018-06-13T01:31:52.842Z,0
2018-06-13T01:32:53.381Z,0
2018-06-13T01:33:53.933Z,0
2018-06-13T01:34:54.476Z,0
2018-06-13T01:35:55.032Z,0
2018-06-13T01:36:55.576Z,0
2018-06-13T01:37:56.125Z,0
2018-06-13T01:38:56.676Z,0
2018-06-13T01:39:57.216Z,0
2018-06-13T01:40:57.764Z,0
2018-06-13T01:41:58.313Z,0
2018-06-13T01:42:58.864Z,0
2018-06-13T01:43:59.411Z,0
2018-06-13T01:44:59.963Z,0
2018-06-13T01:46:00.509Z,0
2018-06-13T01:47:01.047Z,0
2018-06-13T01:48:01.597Z,0
2018-06-13T01:49:02.145Z,0
2018-06-13T01:50:02.689Z,0
2018-06-13T01:51:03.240Z,0
2018-06-13T01:52:03.783Z,0
2018-06-13T01:53:04.332Z,0
2018-06-13T01:54:04.881Z,0
2018-06-13T01:55:05.433Z,0
2018-06-13T01:56:05.987Z,0
2018-06-13T01:57:06.532Z,0
2018-06-13T01:58:07.081Z,0
2018-06-13T01:59:07.626Z,0
2018-06-13T02:00:08.167Z,0
2018-06-13T02:01:08.714Z,0
2018-06-13T02:02:09.262Z,0
2018-06-13T02:03:09.811Z,0
2018-06-13T02:04:10.354Z,0
2018-06-13T02:05:10.906Z,0
2018-06-13T02:06:11.451Z,0
2018-06-13T02:07:11.998Z,0
2018-06-13T02:08:12.544Z,0
2018-06-13T02:09:13.096Z,0
2018-06-13T02:10:13.645Z,0
2018-06-13T02:11:14.192Z,0
2018-06-13T02:12:14.734Z,0
2018-06-13T02:13:15.282Z,0
2018-06-13T02:14:15.833Z,0
2018-06-13T02:15:16.380Z,0
2018-06-13T02:16:16.928Z,0
2018-06-13T02:17:17.473Z,0
2018-06-13T02:18:18.023Z,0
2018-06-13T02:19:18.576Z,0
2018-06-13T02:20:19.124Z,0
2018-06-13T02:21:19.672Z,0
2018-06-13T02:22:20.220Z,0
2018-06-13T02:23:20.768Z,0
2018-06-13T02:24:21.313Z,0
2018-06-13T02:25:21.867Z,0
2018-06-13T02:26:22.416Z,0
2018-06-13T02:27:23.017Z,0
2018-06-13T02:28:23.510Z,0
2018-06-13T02:29:24.062Z,0
2018-06-13T02:30:24.606Z,0
2018-06-13T02:31:25.153Z,0
2018-06-13T02:32:25.698Z,0
2018-06-13T02:33:26.251Z,0
2018-06-13T02:34:26.800Z,0
2018-06-13T02:35:27.352Z,0
2018-06-13T02:36:27.900Z,4
2018-06-13T02:37:28.445Z,4
2018-06-13T02:38:29.008Z,4
2018-06-13T02:39:29.553Z,4
2018-06-13T02:40:30.090Z,4
2018-06-13T02:41:30.642Z,0
2018-06-13T02:42:31.186Z,0
2018-06-13T02:43:31.730Z,4
2018-06-13T02:44:32.281Z,4
2018-06-13T02:45:32.832Z,4
2018-06-13T02:46:33.379Z,4
2018-06-13T02:47:33.924Z,4
2018-06-13T02:48:34.470Z,4
2018-06-13T02:49:35.018Z,4
2018-06-13T02:50:35.569Z,8
2018-06-13T02:51:36.115Z,8
2018-06-13T02:52:36.663Z,8
2018-06-13T02:53:37.216Z,12
2018-06-13T02:54:37.817Z,12
2018-06-13T02:55:38.364Z,16
2018-06-13T02:56:38.911Z,16
2018-06-13T02:57:39.455Z,20
2018-06-13T02:58:40.004Z,24
2018-06-13T02:59:40.549Z,28
2018-06-13T03:00:41.100Z,32
2018-06-13T03:01:41.653Z,36
2018-06-13T03:02:42.204Z,44
2018-06-13T03:03:42.753Z,48
2018-06-13T03:04:43.298Z,56
2018-06-13T03:05:43.847Z,64
2018-06-13T03:06:44.396Z,72
2018-06-13T03:07:44.946Z,80
2018-06-13T03:08:45.489Z,88
2018-06-13T03:09:46.040Z,100
2018-06-13T03:10:46.600Z,112
2018-06-13T03:11:47.146Z,128
2018-06-13T03:12:47.697Z,140
2018-06-13T03:13:48.247Z,152
2018-06-13T03:14:48.793Z,164
2018-06-13T03:15:49.346Z,176
2018-06-13T03:16:49.898Z,188
2018-06-13T03:17:50.445Z,204
2018-06-13T03:18:50.997Z,220
2018-06-13T03:19:51.552Z,232
2018-06-13T03:20:52.133Z,248
2018-06-13T03:21:52.652Z,264
2018-06-13T03:22:53.201Z,280
2018-06-13T03:23:53.752Z,300
2018-06-13T03:24:54.311Z,320
2018-06-13T03:25:54.856Z,336
2018-06-13T03:26:55.400Z,356
2018-06-13T03:27:55.948Z,380
2018-06-13T03:28:56.509Z,408
2018-06-13T03:29:57.060Z,432
2018-06-13T03:30:57.608Z,460
2018-06-13T03:31:58.160Z,488
2018-06-13T03:32:58.713Z,512
2018-06-13T03:33:59.266Z,548
2018-06-13T03:34:59.817Z,580
2018-06-13T03:36:00.369Z,616
2018-06-13T03:37:00.917Z,660
2018-06-13T03:38:01.473Z,704
2018-06-13T03:39:02.034Z,756
2018-06-13T03:40:02.590Z,812
2018-06-13T03:41:03.181Z,876
2018-06-13T03:42:03.708Z,944
2018-06-13T03:43:04.271Z,1012
2018-06-13T03:44:04.828Z,1072
2018-06-13T03:45:05.386Z,1140
2018-06-13T03:46:05.945Z,1204
2018-06-13T03:47:06.503Z,1268
2018-06-13T03:48:07.065Z,1340
2018-06-13T03:49:07.622Z,1436
2018-06-13T03:50:08.178Z,1536
2018-06-13T03:51:08.729Z,1620
2018-06-13T03:52:09.280Z,1696
2018-06-13T03:53:09.841Z,1776
2018-06-13T03:54:10.399Z,1856
2018-06-13T03:55:10.960Z,1940
2018-06-13T03:56:11.516Z,2024
2018-06-13T03:57:12.069Z,2092
2018-06-13T03:58:12.617Z,2144
2018-06-13T03:59:13.179Z,2188
2018-06-13T04:00:13.741Z,2220
2018-06-13T04:01:14.304Z,2252
2018-06-13T04:02:14.859Z,2280
2018-06-13T04:03:15.418Z,2336
2018-06-13T04:04:15.968Z,2364
2018-06-13T04:05:16.526Z,2376
2018-06-13T04:06:17.094Z,2392
2018-06-13T04:07:17.704Z,2420
2018-06-13T04:08:18.201Z,2412
2018-06-13T04:09:18.758Z,2456
2018-06-13T04:10:19.319Z,2592
2018-06-13T04:11:19.879Z,2796
2018-06-13T04:12:20.427Z,3036
2018-06-13T04:13:20.985Z,3312
2018-06-13T04:14:21.545Z,3552
2018-06-13T04:15:22.111Z,3736
2018-06-13T04:16:22.667Z,3844
2018-06-13T04:17:23.222Z,3912
2018-06-13T04:18:23.775Z,4008
2018-06-13T04:19:24.331Z,4112
2018-06-13T04:20:24.884Z,4220
2018-06-13T04:21:25.440Z,4332
2018-06-13T04:22:26.005Z,4436
2018-06-13T04:23:26.556Z,4532
2018-06-13T04:24:27.137Z,4676
2018-06-13T04:25:27.692Z,4844
2018-06-13T04:26:28.244Z,5028
2018-06-13T04:27:28.807Z,5232
2018-06-13T04:28:29.364Z,5360
2018-06-13T04:29:29.916Z,5464
2018-06-13T04:30:30.475Z,5544
2018-06-13T04:31:31.029Z,5656
2018-06-13T04:32:31.590Z,5748
2018-06-13T04:33:32.151Z,5768
2018-06-13T04:34:32.710Z,5744
2018-06-13T04:35:33.262Z,5708
2018-06-13T04:36:33.829Z,5768
2018-06-13T04:37:34.390Z,5880
2018-06-13T04:38:34.952Z,6032
2018-06-13T04:39:35.508Z,6204
2018-06-13T04:40:36.060Z,6388
2018-06-13T04:41:36.626Z,6572
2018-06-13T04:42:37.192Z,6760
2018-06-13T04:43:37.758Z,6920
2018-06-13T04:44:38.309Z,7072
2018-06-13T04:45:38.940Z,7260
2018-06-13T04:46:39.471Z,7424
2018-06-13T04:47:40.048Z,7540
2018-06-13T04:48:40.623Z,7660
2018-06-13T04:49:41.160Z,7796
2018-06-13T04:50:41.719Z,7952
2018-06-13T04:51:42.277Z,8084
2018-06-13T04:52:42.830Z,8172
2018-06-13T04:53:43.385Z,8260
2018-06-13T04:54:43.946Z,8344
2018-06-13T04:55:44.499Z,8492
2018-06-13T04:56:45.060Z,8704
2018-06-13T04:57:45.609Z,8932
2018-06-13T04:58:46.162Z,9124
2018-06-13T04:59:46.723Z,9304
2018-06-13T05:00:47.267Z,9580
2018-06-13T05:01:47.829Z,9816
2018-06-13T05:02:48.386Z,10044
2018-06-13T05:03:48.944Z,10192
2018-06-13T05:04:49.511Z,10376
2018-06-13T05:05:50.070Z,10592
2018-06-13T05:06:50.629Z,10840
2018-06-13T05:07:51.178Z,11052
2018-06-13T05:08:51.729Z,11304
2018-06-13T05:09:52.288Z,11628
2018-06-13T05:10:52.850Z,11988
2018-06-13T05:11:53.401Z,12024
2018-06-13T05:12:53.963Z,11836
2018-06-13T05:13:54.521Z,11584
2018-06-13T05:14:55.078Z,11224
2018-06-13T05:15:55.636Z,10868
2018-06-13T05:16:56.197Z,10612
2018-06-13T05:17:56.757Z,10468
2018-06-13T05:18:57.309Z,10392
2018-06-13T05:19:57.861Z,10332
2018-06-13T05:20:58.427Z,10260
2018-06-13T05:21:58.975Z,10192
2018-06-13T05:22:59.531Z,10236
2018-06-13T05:24:00.087Z,10388
2018-06-13T05:25:00.639Z,10592
2018-06-13T05:26:01.207Z,10432
2018-06-13T05:27:01.758Z,9892
2018-06-13T05:28:02.316Z,9880
2018-06-13T05:29:02.872Z,9488
2018-06-13T05:30:03.424Z,8832
2018-06-13T05:31:03.984Z,8624
2018-06-13T05:32:04.538Z,8736
2018-06-13T05:33:05.132Z,8888
2018-06-13T05:34:05.669Z,8992
2018-06-13T05:35:06.223Z,8952
2018-06-13T05:36:06.784Z,8948
2018-06-13T05:37:07.338Z,9416
2018-06-13T05:38:07.890Z,9304
2018-06-13T05:39:08.458Z,8908
2018-06-13T05:40:09.018Z,9412
2018-06-13T05:41:09.567Z,9520
2018-06-13T05:42:10.124Z,9460
2018-06-13T05:43:10.684Z,9596
2018-06-13T05:44:11.238Z,9624
2018-06-13T05:45:11.793Z,9592
2018-06-13T05:46:12.344Z,9584
2018-06-13T05:47:12.911Z,9672
2018-06-13T05:48:13.473Z,9792
2018-06-13T05:49:14.026Z,9980
2018-06-13T05:50:14.587Z,10172
2018-06-13T05:51:15.152Z,10340
2018-06-13T05:52:15.712Z,10504
2018-06-13T05:53:16.262Z,10720
2018-06-13T05:54:16.819Z,11028
2018-06-13T05:55:17.378Z,11360
2018-06-13T05:56:17.948Z,11700
2018-06-13T05:57:18.498Z,12140
2018-06-13T05:58:19.054Z,12364
2018-06-13T05:59:19.614Z,12544
2018-06-13T06:00:20.172Z,12840
2018-06-13T06:01:20.771Z,13372
2018-06-13T06:02:21.301Z,13732
2018-06-13T06:03:21.860Z,13844
2018-06-13T06:04:22.418Z,13696
2018-06-13T06:05:22.979Z,14004
2018-06-13T06:06:23.537Z,14008
2018-06-13T06:07:24.114Z,13856
2018-06-13T06:08:24.663Z,13696
2018-06-13T06:09:25.222Z,13808
2018-06-13T06:10:25.911Z,14068
2018-06-13T06:11:26.329Z,14580
2018-06-13T06:12:26.885Z,15380
2018-06-13T06:13:27.467Z,16376
2018-06-13T06:14:27.992Z,17144
2018-06-13T06:15:28.551Z,17852
2018-06-13T06:16:29.105Z,18144
2018-06-13T06:17:29.664Z,17080
2018-06-13T06:18:30.220Z,17592
2018-06-13T06:19:30.776Z,19520
2018-06-13T06:20:31.334Z,20192
2018-06-13T06:21:31.913Z,20704
2018-06-13T06:22:32.477Z,20864
2018-06-13T06:23:33.076Z,20576
2018-06-13T06:24:33.605Z,19904
2018-06-13T06:25:34.159Z,19488
2018-06-13T06:26:34.727Z,19712
2018-06-13T06:27:35.273Z,19808
2018-06-13T06:28:35.832Z,19680
2018-06-13T06:29:36.389Z,19552
2018-06-13T06:30:36.955Z,19360
2018-06-13T06:31:37.509Z,18816
2018-06-13T06:32:38.066Z,18280
2018-06-13T06:33:38.630Z,19232
2018-06-13T06:34:39.186Z,20160
2018-06-13T06:35:39.743Z,21216
2018-06-13T06:36:40.314Z,21536
2018-06-13T06:37:40.866Z,21120
2018-06-13T06:38:41.428Z,21024
2018-06-13T06:39:41.984Z,20736
2018-06-13T06:40:42.544Z,20288
2018-06-13T06:41:43.108Z,20160
2018-06-13T06:42:43.672Z,20608
2018-06-13T06:43:44.233Z,21248
2018-06-13T06:44:44.794Z,22144
2018-06-13T06:45:45.448Z,22976
2018-06-13T06:46:45.945Z,23392
2018-06-13T06:47:46.516Z,23168
2018-06-13T06:48:47.064Z,23552
2018-06-13T06:49:47.626Z,24160
2018-06-13T06:50:48.209Z,24608
2018-06-13T06:51:48.744Z,25088
2018-06-13T06:52:49.298Z,26464
2018-06-13T06:53:49.851Z,27552
2018-06-13T06:54:50.437Z,27712
2018-06-13T06:55:50.969Z,27456
2018-06-13T06:56:51.525Z,27200
2018-06-13T06:57:52.090Z,27360
2018-06-13T06:58:52.646Z,27520
2018-06-13T06:59:53.203Z,27104
2018-06-13T07:00:53.769Z,26592
2018-06-13T07:01:54.328Z,26944
2018-06-13T07:02:54.887Z,27648
2018-06-13T07:03:55.440Z,28224
2018-06-13T07:04:56.010Z,28608
2018-06-13T07:05:56.561Z,28288
2018-06-13T07:06:57.123Z,26976
2018-06-13T07:07:57.686Z,24928
2018-06-13T07:08:58.274Z,24160
2018-06-13T07:09:58.824Z,23360
2018-06-13T07:10:59.379Z,24544
2018-06-13T07:11:59.940Z,27200
2018-06-13T07:13:00.496Z,29056
2018-06-13T07:14:01.048Z,28960
2018-06-13T07:15:01.606Z,28480
2018-06-13T07:16:02.168Z,28000
2018-06-13T07:17:02.733Z,27232
2018-06-13T07:18:03.325Z,25952
2018-06-13T07:19:03.941Z,26624
2018-06-13T07:20:04.415Z,26304
2018-06-13T07:21:04.977Z,24640
2018-06-13T07:22:05.542Z,23456
2018-06-13T07:23:06.088Z,23904
2018-06-13T07:24:06.649Z,25248
2018-06-13T07:25:07.212Z,27648
2018-06-13T07:26:07.772Z,29760
2018-06-13T07:27:08.323Z,29472
2018-06-13T07:28:08.882Z,27008
2018-06-13T07:29:09.443Z,24704
2018-06-13T07:30:10.019Z,24864
2018-06-13T07:31:10.577Z,25120
2018-06-13T07:32:11.140Z,25344
2018-06-13T07:33:11.703Z,26144
2018-06-13T07:34:12.303Z,26400
2018-06-13T07:35:12.832Z,26208
2018-06-13T07:36:13.395Z,26592
2018-06-13T07:37:13.953Z,26496
2018-06-13T07:38:14.514Z,23648
2018-06-13T07:39:15.078Z,19008
2018-06-13T07:40:15.645Z,15416
2018-06-13T07:41:16.200Z,15308
2018-06-13T07:42:16.753Z,17076
2018-06-13T07:43:17.342Z,19520
2018-06-13T07:44:17.902Z,22208
2018-06-13T07:45:18.463Z,23968
2018-06-13T07:46:19.017Z,25632
2018-06-13T07:47:19.574Z,27200
2018-06-13T07:48:20.137Z,27328
2018-06-13T07:49:20.699Z,26048
2018-06-13T07:50:21.264Z,24128
2018-06-13T07:51:21.833Z,22176
2018-06-13T07:52:22.397Z,19712
2018-06-13T07:53:22.959Z,17328
2018-06-13T07:54:23.522Z,16352
2018-06-13T07:55:24.081Z,16664
2018-06-13T07:56:24.642Z,16920
2018-06-13T07:57:25.219Z,16284
2018-06-13T07:58:25.782Z,15956
2018-06-13T07:59:26.367Z,15876
2018-06-13T08:00:26.967Z,15936
2018-06-13T08:01:27.565Z,15948
2018-06-13T08:02:28.137Z,16692
2018-06-13T08:03:28.706Z,19104
2018-06-13T08:04:29.275Z,22528
2018-06-13T08:05:29.840Z,26304
2018-06-13T08:06:30.393Z,29120
2018-06-13T08:07:30.967Z,30304
2018-06-13T08:08:31.621Z,31008
2018-06-13T08:09:32.091Z,32032
2018-06-13T08:10:32.655Z,33056
2018-06-13T08:11:33.235Z,32896
2018-06-13T08:12:33.824Z,32736
2018-06-13T08:13:34.402Z,33888
2018-06-13T08:14:35.022Z,35232
2018-06-13T08:15:35.665Z,36096
2018-06-13T08:16:36.320Z,36736
2018-06-13T08:17:36.913Z,40512
2018-06-13T08:18:37.545Z,36384
2018-06-13T08:19:38.147Z,35584
2018-06-13T08:20:38.736Z,35040
2018-06-13T08:21:39.345Z,36640
2018-06-13T08:22:39.973Z,38208
2018-06-13T08:23:40.574Z,38656
2018-06-13T08:24:41.181Z,38272
2018-06-13T08:25:41.814Z,38112
2018-06-13T08:26:42.432Z,39392
2018-06-13T08:27:43.091Z,38912
2018-06-13T08:28:43.729Z,38464
2018-06-13T08:29:44.381Z,38176
2018-06-13T08:30:45.001Z,37536
2018-06-13T08:31:45.694Z,36800
2018-06-13T08:32:46.378Z,37184
2018-06-13T08:33:47.084Z,38720
2018-06-13T08:34:47.601Z,40160
2018-06-13T08:35:48.220Z,41024
2018-06-13T08:36:48.850Z,41152
2018-06-13T08:37:49.439Z,41760
2018-06-13T08:38:50.060Z,43008
2018-06-13T08:39:50.681Z,44576
2018-06-13T08:40:51.240Z,45440
2018-06-13T08:41:51.817Z,45408
2018-06-13T08:42:52.402Z,44672
2018-06-13T08:43:52.993Z,44608
2018-06-13T08:44:53.565Z,44320
2018-06-13T08:45:54.149Z,43072
2018-06-13T08:46:54.739Z,40704
2018-06-13T08:47:55.316Z,38304
2018-06-13T08:48:55.897Z,35840
2018-06-13T08:49:56.466Z,36608
2018-06-13T08:50:57.043Z,38112
2018-06-13T08:51:57.654Z,38752
2018-06-13T08:52:58.255Z,38304
2018-06-13T08:53:58.825Z,36512
2018-06-13T08:54:59.384Z,32608
2018-06-13T08:55:59.942Z,28384
2018-06-13T08:57:00.505Z,24160
2018-06-13T08:58:01.063Z,20224
2018-06-13T08:59:01.647Z,17904
2018-06-13T09:00:02.219Z,15852
2018-06-13T09:01:02.822Z,13828
2018-06-13T09:02:03.396Z,12468
2018-06-13T09:03:03.979Z,11376
2018-06-13T09:04:04.538Z,10216
2018-06-13T09:05:05.120Z,9108
2018-06-13T09:06:05.685Z,8152
2018-06-13T09:07:06.287Z,7340
2018-06-13T09:08:06.898Z,6508
2018-06-13T09:09:07.493Z,5820
2018-06-13T09:10:08.103Z,5424
2018-06-13T09:11:08.704Z,5480
2018-06-13T09:12:09.259Z,5328
2018-06-13T09:13:09.874Z,4656
2018-06-13T09:14:10.483Z,4688
2018-06-13T09:15:11.090Z,5684
2018-06-13T09:16:11.735Z,6772
2018-06-13T09:17:12.357Z,8052
2018-06-13T09:18:12.941Z,9968
2018-06-13T09:19:13.564Z,11968
2018-06-13T09:20:14.145Z,14092
2018-06-13T09:21:14.700Z,16016
2018-06-13T09:22:15.266Z,18720
2018-06-13T09:23:15.839Z,21536
2018-06-13T09:24:16.405Z,23936
2018-06-13T09:25:16.971Z,26976
2018-06-13T09:26:17.523Z,30048
2018-06-13T09:27:18.082Z,32672
2018-06-13T09:28:18.642Z,34816
2018-06-13T09:29:19.202Z,36800
2018-06-13T09:30:19.765Z,39008
2018-06-13T09:31:20.383Z,41600
2018-06-13T09:32:20.885Z,44512
2018-06-13T09:33:21.444Z,47520
2018-06-13T09:34:21.999Z,49952
2018-06-13T09:35:22.561Z,52416
2018-06-13T09:36:23.145Z,54144
2018-06-13T09:37:23.728Z,56608
2018-06-13T09:38:24.294Z,59552
2018-06-13T09:39:24.829Z,59072
2018-06-13T09:40:25.395Z,55840
2018-06-13T09:41:25.960Z,48576
2018-06-13T09:42:26.529Z,39040
2018-06-13T09:43:27.085Z,32288
2018-06-13T09:44:27.651Z,27488
2018-06-13T09:45:28.212Z,23968
2018-06-13T09:46:28.771Z,21568
2018-06-13T09:47:29.344Z,20224
2018-06-13T09:48:29.911Z,20288
2018-06-13T09:49:30.498Z,20640
2018-06-13T09:50:31.077Z,19808
2018-06-13T09:51:31.644Z,18624
2018-06-13T09:52:32.261Z,17864
2018-06-13T09:53:32.950Z,19488
2018-06-13T09:54:33.564Z,22016
2018-06-13T09:55:34.190Z,25408
2018-06-13T09:56:34.780Z,29504
2018-06-13T09:57:35.389Z,33344
2018-06-13T09:58:35.984Z,37344
2018-06-13T09:59:36.590Z,40992
2018-06-13T10:00:37.214Z,44096
2018-06-13T10:01:37.930Z,47296
2018-06-13T10:02:38.538Z,49952
2018-06-13T10:03:39.183Z,51424
2018-06-13T10:04:39.914Z,51616
2018-06-13T10:05:40.542Z,49248
2018-06-13T10:06:41.191Z,47104
2018-06-13T10:07:41.845Z,45664
2018-06-13T10:08:42.466Z,45088
2018-06-13T10:09:43.111Z,45408
2018-06-13T10:10:43.726Z,46144
2018-06-13T10:11:44.331Z,46816
2018-06-13T10:12:44.946Z,47616
2018-06-13T10:13:45.567Z,49984
2018-06-13T10:14:46.257Z,52352
2018-06-13T10:15:46.832Z,54144
2018-06-13T10:16:47.428Z,53152
2018-06-13T10:17:48.040Z,46912
2018-06-13T10:18:48.672Z,45632
2018-06-13T10:19:49.271Z,51392
2018-06-13T10:20:49.864Z,60160
2018-06-13T10:21:50.445Z,54048
2018-06-13T10:22:51.095Z,53056
2018-06-13T10:23:51.716Z,52672
2018-06-13T10:24:52.323Z,51168
2018-06-13T10:25:52.968Z,46752
2018-06-13T10:26:53.597Z,43264
2018-06-13T10:27:54.194Z,39616
2018-06-13T10:28:54.834Z,35936
2018-06-13T10:29:55.466Z,33664
2018-06-13T10:30:56.153Z,33792
2018-06-13T10:31:56.746Z,36640
2018-06-13T10:32:57.417Z,39296
2018-06-13T10:33:58.066Z,41792
2018-06-13T10:34:58.725Z,43584
2018-06-13T10:35:59.394Z,44576
2018-06-13T10:37:00.089Z,45120
2018-06-13T10:38:00.691Z,45888
2018-06-13T10:39:01.289Z,46304
2018-06-13T10:40:01.971Z,46624
2018-06-13T10:41:02.612Z,48032
2018-06-13T10:42:03.272Z,48736
2018-06-13T10:43:03.881Z,48992
2018-06-13T10:44:04.511Z,48672
2018-06-13T10:45:05.156Z,49376
2018-06-13T10:46:05.773Z,53568
2018-06-13T10:47:06.378Z,66048
2018-06-13T10:48:06.996Z,84352
2018-06-13T10:49:07.570Z,66368
2018-06-13T10:50:08.176Z,74208
2018-06-13T10:51:08.782Z,80288
2018-06-13T10:52:09.353Z,80416
2018-06-13T10:53:09.946Z,79392
2018-06-13T10:54:10.570Z,76128
2018-06-13T10:55:11.193Z,77632
2018-06-13T10:56:11.778Z,70720
2018-06-13T10:57:12.432Z,57632
2018-06-13T10:58:13.060Z,52864
2018-06-13T10:59:13.716Z,52224
2018-06-13T11:00:14.380Z,50368
2018-06-13T11:01:15.038Z,49024
2018-06-13T11:02:15.629Z,47040
2018-06-13T11:03:16.274Z,44736
2018-06-13T11:04:16.938Z,41216
2018-06-13T11:05:17.595Z,39520
2018-06-13T11:06:18.268Z,39392
2018-06-13T11:07:18.937Z,40128
2018-06-13T11:08:19.612Z,40896
2018-06-13T11:09:20.278Z,41824
2018-06-13T11:10:20.942Z,36352
2018-06-13T11:11:21.629Z,33344
2018-06-13T11:12:22.339Z,31328
2018-06-13T11:13:22.916Z,30400
2018-06-13T11:14:23.553Z,29792
2018-06-13T11:15:24.195Z,29152
2018-06-13T11:16:24.875Z,28736
2018-06-13T11:17:25.556Z,28736
2018-06-13T11:18:26.294Z,29152
2018-06-13T11:19:26.927Z,30496
2018-06-13T11:20:27.605Z,33056
2018-06-13T11:21:28.227Z,36736
2018-06-13T11:22:28.906Z,41184
2018-06-13T11:23:29.577Z,45440
2018-06-13T11:24:30.163Z,48736
2018-06-13T11:25:30.809Z,51744
2018-06-13T11:26:31.403Z,48000
2018-06-13T11:27:32.077Z,47008
2018-06-13T11:28:32.742Z,47168
2018-06-13T11:29:33.373Z,47872
2018-06-13T11:30:33.999Z,49152
2018-06-13T11:31:34.630Z,52128
2018-06-13T11:32:35.187Z,56672
2018-06-13T11:33:35.786Z,62528
2018-06-13T11:34:36.379Z,56352
2018-06-13T11:35:37.020Z,53792
2018-06-13T11:36:37.612Z,58752
2018-06-13T11:37:38.249Z,48256
2018-06-13T11:38:38.870Z,45920
2018-06-13T11:39:39.487Z,45600
2018-06-13T11:40:40.080Z,46912
2018-06-13T11:41:40.684Z,57120
2018-06-13T11:42:41.263Z,53248
2018-06-13T11:43:41.843Z,53696
2018-06-13T11:44:42.427Z,58176
2018-06-13T11:45:43.037Z,61760
2018-06-13T11:46:43.639Z,57056
2018-06-13T11:47:44.271Z,64896
2018-06-13T11:48:44.869Z,56768
2018-06-13T11:49:45.466Z,65472
2018-06-13T11:50:46.061Z,58048
2018-06-13T11:51:46.639Z,54464
2018-06-13T11:52:47.212Z,60608
2018-06-13T11:53:47.795Z,53120
2018-06-13T11:54:48.388Z,50528
2018-06-13T11:55:48.985Z,46752
2018-06-13T11:56:49.614Z,42848
2018-06-13T11:57:50.244Z,36544
2018-06-13T11:58:50.873Z,29280
2018-06-13T11:59:51.490Z,23392
2018-06-13T12:00:52.095Z,18944
2018-06-13T12:01:52.833Z,15708
2018-06-13T12:02:53.257Z,13600
2018-06-13T12:03:53.850Z,12200
2018-06-13T12:04:54.456Z,11192
2018-06-13T12:05:55.033Z,10428
2018-06-13T12:06:55.607Z,9764
2018-06-13T12:07:56.200Z,9400
2018-06-13T12:08:56.783Z,9224
2018-06-13T12:09:57.374Z,9604
2018-06-13T12:10:57.998Z,10476
2018-06-13T12:11:58.600Z,11360
2018-06-13T12:12:59.257Z,12044
2018-06-13T12:13:59.895Z,12552
2018-06-13T12:15:00.483Z,12952
2018-06-13T12:16:01.067Z,13396
2018-06-13T12:17:01.740Z,13956
2018-06-13T12:18:02.262Z,14660
2018-06-13T12:19:02.884Z,15256
2018-06-13T12:20:03.527Z,15588
2018-06-13T12:21:04.123Z,15704
2018-06-13T12:22:04.719Z,16164
2018-06-13T12:23:05.306Z,17184
2018-06-13T12:24:05.887Z,19200
2018-06-13T12:25:06.479Z,21600
2018-06-13T12:26:07.072Z,24480
2018-06-13T12:27:07.657Z,27104
2018-06-13T12:28:08.253Z,29024
2018-06-13T12:29:08.864Z,29536
2018-06-13T12:30:09.438Z,28992
2018-06-13T12:31:10.063Z,28160
2018-06-13T12:32:10.674Z,27744
2018-06-13T12:33:11.294Z,27264
2018-06-13T12:34:11.968Z,26272
2018-06-13T12:35:12.543Z,24960
2018-06-13T12:36:13.135Z,24128
2018-06-13T12:37:13.727Z,23776
2018-06-13T12:38:14.345Z,23776
2018-06-13T12:39:14.965Z,23904
2018-06-13T12:40:15.611Z,24352
2018-06-13T12:41:16.171Z,25088
2018-06-13T12:42:16.771Z,25888
2018-06-13T12:43:17.365Z,26208
2018-06-13T12:44:17.999Z,26240
2018-06-13T12:45:18.641Z,26304
2018-06-13T12:46:19.250Z,26848
2018-06-13T12:47:19.835Z,27520
2018-06-13T12:48:20.411Z,28448
2018-06-13T12:49:20.981Z,29728
2018-06-13T12:50:21.590Z,31136
2018-06-13T12:51:22.181Z,32544
2018-06-13T12:52:22.761Z,33792
2018-06-13T12:53:23.367Z,35552
2018-06-13T12:54:23.942Z,37664
2018-06-13T12:55:24.568Z,40000
2018-06-13T12:56:25.216Z,42784
2018-06-13T12:57:25.807Z,46400
2018-06-13T12:58:26.400Z,53920
2018-06-13T12:59:27.007Z,53536
2018-06-13T13:00:27.615Z,54304
2018-06-13T13:01:28.230Z,55968
2018-06-13T13:02:28.854Z,59104
2018-06-13T13:03:29.483Z,65856
2018-06-13T13:04:30.106Z,60096
2018-06-13T13:05:30.678Z,59872
2018-06-13T13:06:31.296Z,60768
2018-06-13T13:07:31.900Z,61376
2018-06-13T13:08:32.514Z,79008
2018-06-13T13:09:33.100Z,67104
2018-06-13T13:10:33.708Z,57888
2018-06-13T13:11:34.326Z,94144
2018-06-13T13:12:34.961Z,102528
2018-06-13T13:13:35.553Z,79520
2018-06-13T13:14:36.170Z,86304
2018-06-13T13:15:36.778Z,94976
2018-06-13T13:16:37.366Z,80160
2018-06-13T13:17:37.956Z,69440
2018-06-13T13:18:38.544Z,80032
2018-06-13T13:19:39.166Z,60384
2018-06-13T13:20:39.943Z,58560
2018-06-13T13:21:40.556Z,91296
2018-06-13T13:22:41.151Z,51552
2018-06-13T13:23:41.767Z,49856
2018-06-13T13:24:42.385Z,49696
2018-06-13T13:25:42.980Z,48704
2018-06-13T13:26:43.572Z,47744
2018-06-13T13:27:44.193Z,46048
2018-06-13T13:28:44.827Z,45888
2018-06-13T13:29:45.469Z,44224
2018-06-13T13:30:46.063Z,42816